sensor_id;sensor_type;location;lat;lon;timestamp;noise_LAeq;noise_LA_min;noise_LA_max;noise_LA01;noise_LA95
42701;Laerm;28316;49.504;8.526;2023-06-22T00:02:18;42.03;40.80;43.19;;
42701;Laerm;28316;49.504;8.526;2023-06-22T00:04:44;42.04;40.62;43.14;;
42701;Laerm;28316;49.504;8.526;2023-06-22T00:07:10;42.06;40.89;43.24;;
42701;Laerm;28316;49.504;8.526;2023-06-22T00:09:36;42.07;40.71;43.09;;
42701;Laerm;28316;49.504;8.526;2023-06-22T00:12:02;42.08;40.80;43.14;;
42701;Laerm;28316;49.504;8.526;2023-06-22T00:14:28;42.07;40.62;43.19;;
42701;Laerm;28316;49.504;8.526;2023-06-22T00:16:54;42.06;40.71;43.34;;
42701;Laerm;28316;49.504;8.526;2023-06-22T00:19:21;42.06;40.80;43.24;;
42701;Laerm;28316;49.504;8.526;2023-06-22T00:21:48;42.10;40.88;43.14;;
42701;Laerm;28316;49.504;8.526;2023-06-22T00:24:23;42.10;40.89;43.24;;
42701;Laerm;28316;49.504;8.526;2023-06-22T00:26:49;42.14;40.53;43.29;;
42701;Laerm;28316;49.504;8.526;2023-06-22T00:29:15;42.14;40.89;43.29;;
42701;Laerm;28316;49.504;8.526;2023-06-22T00:31:41;42.13;40.98;43.14;;
42701;Laerm;28316;49.504;8.526;2023-06-22T00:34:08;42.13;40.80;43.49;;
42701;Laerm;28316;49.504;8.526;2023-06-22T00:36:35;42.15;40.71;43.34;;
42701;Laerm;28316;49.504;8.526;2023-06-22T00:39:01;42.19;40.80;43.49;;
42701;Laerm;28316;49.504;8.526;2023-06-22T00:41:27;42.16;40.71;45.97;;
42701;Laerm;28316;49.504;8.526;2023-06-22T00:43:55;42.16;40.71;43.34;;
42701;Laerm;28316;49.504;8.526;2023-06-22T00:46:22;42.19;40.89;48.77;;
42701;Laerm;28316;49.504;8.526;2023-06-22T00:48:49;42.39;40.53;51.76;;
42701;Laerm;28316;49.504;8.526;2023-06-22T00:51:15;42.72;40.62;56.60;;
42701;Laerm;28316;49.504;8.526;2023-06-22T00:53:42;42.64;40.80;58.07;;
42701;Laerm;28316;49.504;8.526;2023-06-22T00:56:09;42.20;40.98;45.39;;
42701;Laerm;28316;49.504;8.526;2023-06-22T00:58:38;42.11;40.89;43.14;;
42701;Laerm;28316;49.504;8.526;2023-06-22T01:01:07;41.19;38.52;42.98;;
42701;Laerm;28316;49.504;8.526;2023-06-22T01:03:33;39.55;35.36;63.19;;
42701;Laerm;28316;49.504;8.526;2023-06-22T01:06:14;38.61;35.04;42.98;;
42701;Laerm;28316;49.504;8.526;2023-06-22T01:08:57;37.98;33.44;47.20;;
42701;Laerm;28316;49.504;8.526;2023-06-22T01:11:36;37.82;32.93;46.20;;
42701;Laerm;28316;49.504;8.526;2023-06-22T01:14:10;38.17;34.31;44.27;;
42701;Laerm;28316;49.504;8.526;2023-06-22T01:16:41;38.50;35.36;42.41;;
42701;Laerm;28316;49.504;8.526;2023-06-22T01:19:46;38.84;35.66;44.90;;
42701;Laerm;28316;49.504;8.526;2023-06-22T01:22:17;38.92;35.94;42.03;;
42701;Laerm;28316;49.504;8.526;2023-06-22T01:24:57;39.08;35.66;45.20;;
42701;Laerm;28316;49.504;8.526;2023-06-22T01:30:16;38.58;35.66;41.61;;
42701;Laerm;28316;49.504;8.526;2023-06-22T01:32:44;38.79;35.04;42.35;;
42701;Laerm;28316;49.504;8.526;2023-06-22T01:35:11;38.94;35.66;42.47;;
42701;Laerm;28316;49.504;8.526;2023-06-22T01:37:38;39.04;35.66;45.69;;
42701;Laerm;28316;49.504;8.526;2023-06-22T01:40:06;38.75;35.66;45.83;;
42701;Laerm;28316;49.504;8.526;2023-06-22T01:42:34;38.52;35.66;41.22;;
42701;Laerm;28316;49.504;8.526;2023-06-22T01:45:01;38.47;35.66;40.80;;
42701;Laerm;28316;49.504;8.526;2023-06-22T01:47:29;38.58;35.66;40.80;;
42701;Laerm;28316;49.504;8.526;2023-06-22T01:49:55;38.43;35.66;40.71;;
42701;Laerm;28316;49.504;8.526;2023-06-22T01:52:21;38.59;35.66;47.68;;
42701;Laerm;28316;49.504;8.526;2023-06-22T01:54:47;38.37;35.36;42.59;;
42701;Laerm;28316;49.504;8.526;2023-06-22T01:57:16;38.40;35.36;43.49;;
42701;Laerm;28316;49.504;8.526;2023-06-22T02:00:11;38.21;34.69;42.13;;
42701;Laerm;28316;49.504;8.526;2023-06-22T02:02:56;38.25;35.04;41.46;;
42701;Laerm;28316;49.504;8.526;2023-06-22T02:05:28;38.29;35.04;43.04;;
42701;Laerm;28316;49.504;8.526;2023-06-22T02:08:23;38.28;34.69;41.46;;
42701;Laerm;28316;49.504;8.526;2023-06-22T02:10:51;38.31;35.36;41.75;;
42701;Laerm;28316;49.504;8.526;2023-06-22T02:13:18;38.33;35.04;44.73;;
42701;Laerm;28316;49.504;8.526;2023-06-22T02:15:45;38.25;34.69;41.68;;
42701;Laerm;28316;49.504;8.526;2023-06-22T02:18:13;38.03;35.04;41.30;;
42701;Laerm;28316;49.504;8.526;2023-06-22T02:20:40;38.04;34.69;40.53;;
42701;Laerm;28316;49.504;8.526;2023-06-22T02:23:06;38.22;35.04;40.89;;
42701;Laerm;28316;49.504;8.526;2023-06-22T02:25:33;38.16;35.04;40.53;;
42701;Laerm;28316;49.504;8.526;2023-06-22T02:27:59;38.14;35.36;40.43;;
42701;Laerm;28316;49.504;8.526;2023-06-22T02:30:25;38.18;35.36;40.53;;
42701;Laerm;28316;49.504;8.526;2023-06-22T02:32:50;38.20;35.59;40.62;;
42701;Laerm;28316;49.504;8.526;2023-06-22T02:35:28;38.39;35.86;40.89;;
42701;Laerm;28316;49.504;8.526;2023-06-22T02:38:01;38.35;35.36;40.80;;
42701;Laerm;28316;49.504;8.526;2023-06-22T02:40:28;38.32;35.36;40.89;;
42701;Laerm;28316;49.504;8.526;2023-06-22T02:42:55;38.31;35.36;41.22;;
42701;Laerm;28316;49.504;8.526;2023-06-22T02:45:21;38.39;35.66;41.06;;
42701;Laerm;28316;49.504;8.526;2023-06-22T02:47:47;38.18;35.04;40.80;;
42701;Laerm;28316;49.504;8.526;2023-06-22T02:50:15;38.27;35.04;41.46;;
42701;Laerm;28316;49.504;8.526;2023-06-22T02:52:41;38.15;35.36;40.98;;
42701;Laerm;28316;49.504;8.526;2023-06-22T02:55:07;38.16;34.69;50.24;;
42701;Laerm;28316;49.504;8.526;2023-06-22T02:57:34;38.78;35.36;51.08;;
42701;Laerm;28316;49.504;8.526;2023-06-22T02:59:59;37.92;34.69;40.43;;
42701;Laerm;28316;49.504;8.526;2023-06-22T03:02:25;37.98;35.36;40.43;;
42701;Laerm;28316;49.504;8.526;2023-06-22T03:04:52;37.90;35.04;40.43;;
42701;Laerm;28316;49.504;8.526;2023-06-22T03:07:20;37.94;34.69;40.62;;
42701;Laerm;28316;49.504;8.526;2023-06-22T03:09:46;37.92;34.31;40.89;;
42701;Laerm;28316;49.504;8.526;2023-06-22T03:12:12;37.87;34.69;40.23;;
42701;Laerm;28316;49.504;8.526;2023-06-22T03:14:37;37.83;34.69;40.43;;
42701;Laerm;28316;49.504;8.526;2023-06-22T03:17:05;37.84;34.69;40.53;;
42701;Laerm;28316;49.504;8.526;2023-06-22T03:19:31;37.76;34.69;40.43;;
42701;Laerm;28316;49.504;8.526;2023-06-22T03:21:59;37.64;33.90;40.13;;
42701;Laerm;28316;49.504;8.526;2023-06-22T03:24:25;37.62;34.69;40.13;;
42701;Laerm;28316;49.504;8.526;2023-06-22T03:26:54;37.66;34.31;40.33;;
42701;Laerm;28316;49.504;8.526;2023-06-22T03:29:20;37.66;34.31;40.13;;
42701;Laerm;28316;49.504;8.526;2023-06-22T03:31:46;37.56;34.31;48.16;;
42701;Laerm;28316;49.504;8.526;2023-06-22T03:34:11;37.53;33.90;39.70;;
42701;Laerm;28316;49.504;8.526;2023-06-22T03:36:37;37.51;34.31;39.70;;
42701;Laerm;28316;49.504;8.526;2023-06-22T03:39:03;37.60;34.31;42.29;;
42701;Laerm;28316;49.504;8.526;2023-06-22T03:41:28;37.75;33.90;41.06;;
42701;Laerm;28316;49.504;8.526;2023-06-22T03:43:54;37.66;34.31;40.98;;
42701;Laerm;28316;49.504;8.526;2023-06-22T03:46:20;37.57;34.31;40.33;;
42701;Laerm;28316;49.504;8.526;2023-06-22T03:48:46;37.58;34.31;40.03;;
42701;Laerm;28316;49.504;8.526;2023-06-22T03:51:11;37.61;34.69;40.13;;
42701;Laerm;28316;49.504;8.526;2023-06-22T03:53:37;37.64;34.69;40.03;;
42701;Laerm;28316;49.504;8.526;2023-06-22T03:56:03;37.68;34.31;40.03;;
42701;Laerm;28316;49.504;8.526;2023-06-22T03:58:29;37.71;34.69;40.43;;
42701;Laerm;28316;49.504;8.526;2023-06-22T04:00:58;37.66;33.90;40.23;;
42701;Laerm;28316;49.504;8.526;2023-06-22T04:03:25;37.64;34.31;40.33;;
42701;Laerm;28316;49.504;8.526;2023-06-22T04:05:51;37.67;34.31;40.13;;
42701;Laerm;28316;49.504;8.526;2023-06-22T04:08:17;37.71;34.69;41.06;;
42701;Laerm;28316;49.504;8.526;2023-06-22T04:10:43;37.71;35.04;45.37;;
42701;Laerm;28316;49.504;8.526;2023-06-22T04:13:09;37.68;34.31;42.53;;
42701;Laerm;28316;49.504;8.526;2023-06-22T04:15:35;37.73;33.90;44.31;;
42701;Laerm;28316;49.504;8.526;2023-06-22T04:18:01;37.77;34.69;40.33;;
42701;Laerm;28316;49.504;8.526;2023-06-22T04:20:27;38.03;35.04;40.23;;
42701;Laerm;28316;49.504;8.526;2023-06-22T04:22:53;38.16;35.04;40.43;;
42701;Laerm;28316;49.504;8.526;2023-06-22T04:25:20;38.23;35.36;40.98;;
42701;Laerm;28316;49.504;8.526;2023-06-22T04:27:47;38.13;35.31;40.89;;
42701;Laerm;28316;49.504;8.526;2023-06-22T04:30:14;38.13;35.04;40.80;;
42701;Laerm;28316;49.504;8.526;2023-06-22T04:32:44;38.24;35.66;41.30;;
42701;Laerm;28316;49.504;8.526;2023-06-22T04:35:11;38.26;35.04;40.71;;
42701;Laerm;28316;49.504;8.526;2023-06-22T04:37:37;38.28;35.36;46.76;;
42701;Laerm;28316;49.504;8.526;2023-06-22T04:40:03;38.37;35.36;42.76;;
42701;Laerm;28316;49.504;8.526;2023-06-22T04:42:31;38.34;35.66;44.98;;
42701;Laerm;28316;49.504;8.526;2023-06-22T04:44:57;38.32;35.94;48.21;;
42701;Laerm;28316;49.504;8.526;2023-06-22T04:47:23;38.27;35.94;40.53;;
42701;Laerm;28316;49.504;8.526;2023-06-22T04:49:48;38.31;35.66;40.33;;
42701;Laerm;28316;49.504;8.526;2023-06-22T04:52:14;38.35;35.94;42.59;;
42701;Laerm;28316;49.504;8.526;2023-06-22T04:54:43;38.46;35.94;47.76;;
42701;Laerm;28316;49.504;8.526;2023-06-22T04:57:16;38.57;35.36;49.97;;
42701;Laerm;28316;49.504;8.526;2023-06-22T04:59:43;38.59;35.94;44.31;;
42701;Laerm;28316;49.504;8.526;2023-06-22T05:02:09;38.65;35.94;40.53;;
42701;Laerm;28316;49.504;8.526;2023-06-22T05:04:35;38.84;36.45;41.26;;
42701;Laerm;28316;49.504;8.526;2023-06-22T05:07:04;39.01;36.45;41.06;;
42701;Laerm;28316;49.504;8.526;2023-06-22T05:09:30;39.15;36.69;40.89;;
42701;Laerm;28316;49.504;8.526;2023-06-22T05:11:56;39.31;36.91;41.06;;
42701;Laerm;28316;49.504;8.526;2023-06-22T05:14:22;39.35;37.12;41.53;;
42701;Laerm;28316;49.504;8.526;2023-06-22T05:16:49;39.49;37.70;41.22;;
42701;Laerm;28316;49.504;8.526;2023-06-22T05:19:14;39.66;37.87;41.33;;
42701;Laerm;28316;49.504;8.526;2023-06-22T05:21:40;39.72;37.70;41.30;;
42701;Laerm;28316;49.504;8.526;2023-06-22T05:24:06;39.79;37.70;41.38;;
42701;Laerm;28316;49.504;8.526;2023-06-22T05:26:34;39.98;38.05;42.16;;
42701;Laerm;28316;49.504;8.526;2023-06-22T05:29:02;39.99;38.05;45.42;;
42701;Laerm;28316;49.504;8.526;2023-06-22T05:31:28;39.77;37.70;48.64;;
42701;Laerm;28316;49.504;8.526;2023-06-22T05:33:55;39.93;38.05;41.68;;
42701;Laerm;28316;49.504;8.526;2023-06-22T05:36:21;40.20;38.21;45.30;;
42701;Laerm;28316;49.504;8.526;2023-06-22T05:38:52;40.27;38.52;44.15;;
42701;Laerm;28316;49.504;8.526;2023-06-22T05:41:18;40.42;38.67;44.11;;
42701;Laerm;28316;49.504;8.526;2023-06-22T05:43:44;40.90;39.21;52.10;;
42701;Laerm;28316;49.504;8.526;2023-06-22T05:46:09;41.18;39.46;45.42;;
42701;Laerm;28316;49.504;8.526;2023-06-22T05:48:35;41.36;40.23;45.89;;
42701;Laerm;28316;49.504;8.526;2023-06-22T05:51:01;41.46;40.23;44.27;;
42701;Laerm;28316;49.504;8.526;2023-06-22T05:53:27;41.58;40.13;43.77;;
42701;Laerm;28316;49.504;8.526;2023-06-22T05:55:53;41.66;40.27;44.73;;
42701;Laerm;28316;49.504;8.526;2023-06-22T05:58:18;41.92;40.71;46.59;;
42701;Laerm;28316;49.504;8.526;2023-06-22T06:00:44;41.93;40.62;45.20;;
42701;Laerm;28316;49.504;8.526;2023-06-22T06:03:10;41.88;40.53;46.66;;
42701;Laerm;28316;49.504;8.526;2023-06-22T06:05:36;41.88;40.53;44.39;;
42701;Laerm;28316;49.504;8.526;2023-06-22T06:08:05;41.91;40.53;43.09;;
42701;Laerm;28316;49.504;8.526;2023-06-22T06:10:33;41.91;40.71;43.09;;
42701;Laerm;28316;49.504;8.526;2023-06-22T06:12:59;41.92;40.71;43.24;;
42701;Laerm;28316;49.504;8.526;2023-06-22T06:15:28;41.98;40.62;43.09;;
42701;Laerm;28316;49.504;8.526;2023-06-22T06:17:54;42.02;40.71;43.04;;
42701;Laerm;28316;49.504;8.526;2023-06-22T06:20:22;42.04;40.80;43.24;;
42701;Laerm;28316;49.504;8.526;2023-06-22T06:22:49;42.06;40.89;43.39;;
42701;Laerm;28316;49.504;8.526;2023-06-22T06:25:15;42.12;40.79;44.27;;
42701;Laerm;28316;49.504;8.526;2023-06-22T06:27:46;42.22;40.89;43.39;;
42701;Laerm;28316;49.504;8.526;2023-06-22T06:30:14;42.24;40.71;43.39;;
42701;Laerm;28316;49.504;8.526;2023-06-22T06:32:40;42.25;40.98;43.34;;
42701;Laerm;28316;49.504;8.526;2023-06-22T06:35:10;42.28;41.06;43.39;;
42701;Laerm;28316;49.504;8.526;2023-06-22T06:37:38;42.30;41.06;43.44;;
42701;Laerm;28316;49.504;8.526;2023-06-22T06:40:06;42.29;41.14;43.34;;
42701;Laerm;28316;49.504;8.526;2023-06-22T06:42:39;42.28;40.98;43.39;;
42701;Laerm;28316;49.504;8.526;2023-06-22T06:45:11;42.29;40.80;43.34;;
42701;Laerm;28316;49.504;8.526;2023-06-22T06:47:37;42.28;41.06;43.39;;
42701;Laerm;28316;49.504;8.526;2023-06-22T06:50:05;42.27;40.98;43.68;;
42701;Laerm;28316;49.504;8.526;2023-06-22T06:52:31;42.28;40.89;43.24;;
42701;Laerm;28316;49.504;8.526;2023-06-22T06:54:58;42.26;40.80;43.39;;
42701;Laerm;28316;49.504;8.526;2023-06-22T06:57:24;42.27;40.98;43.34;;
42701;Laerm;28316;49.504;8.526;2023-06-22T06:59:57;42.26;40.71;43.33;;
42701;Laerm;28316;49.504;8.526;2023-06-22T07:02:23;42.25;40.98;43.44;;
42701;Laerm;28316;49.504;8.526;2023-06-22T07:04:49;42.23;40.80;43.29;;
42701;Laerm;28316;49.504;8.526;2023-06-22T07:07:16;42.24;40.89;45.66;;
42701;Laerm;28316;49.504;8.526;2023-06-22T07:09:42;42.23;40.89;48.07;;
42701;Laerm;28316;49.504;8.526;2023-06-22T07:12:08;42.22;40.89;43.29;;
42701;Laerm;28316;49.504;8.526;2023-06-22T07:14:34;42.20;40.89;43.39;;
42701;Laerm;28316;49.504;8.526;2023-06-22T07:16:59;42.20;40.79;43.29;;
42701;Laerm;28316;49.504;8.526;2023-06-22T07:19:27;42.20;40.71;43.29;;
42701;Laerm;28316;49.504;8.526;2023-06-22T07:21:53;42.18;40.80;43.44;;
42701;Laerm;28316;49.504;8.526;2023-06-22T07:24:23;42.17;40.96;43.49;;
42701;Laerm;28316;49.504;8.526;2023-06-22T07:26:50;42.19;40.80;43.24;;
42701;Laerm;28316;49.504;8.526;2023-06-22T07:29:22;42.15;40.71;43.19;;
42701;Laerm;28316;49.504;8.526;2023-06-22T07:31:50;42.15;40.62;43.39;;
42701;Laerm;28316;49.504;8.526;2023-06-22T07:34:17;42.14;40.62;43.19;;
42701;Laerm;28316;49.504;8.526;2023-06-22T07:36:44;42.13;40.71;43.29;;
42701;Laerm;28316;49.504;8.526;2023-06-22T07:39:10;42.09;40.79;43.44;;
42701;Laerm;28316;49.504;8.526;2023-06-22T07:41:36;42.07;40.62;43.29;;
42701;Laerm;28316;49.504;8.526;2023-06-22T07:44:02;42.02;40.53;43.14;;
42701;Laerm;28316;49.504;8.526;2023-06-22T07:46:29;42.00;40.53;43.34;;
42701;Laerm;28316;49.504;8.526;2023-06-22T07:48:56;42.01;40.62;43.34;;
42701;Laerm;28316;49.504;8.526;2023-06-22T07:51:23;42.01;40.03;43.24;;
42701;Laerm;28316;49.504;8.526;2023-06-22T07:53:49;42.00;40.63;43.09;;
42701;Laerm;28316;49.504;8.526;2023-06-22T07:56:15;41.96;40.53;43.04;;
42701;Laerm;28316;49.504;8.526;2023-06-22T07:58:45;41.98;40.33;43.39;;
42701;Laerm;28316;49.504;8.526;2023-06-22T08:01:12;41.97;40.13;43.34;;
42701;Laerm;28316;49.504;8.526;2023-06-22T08:03:38;41.93;40.23;43.29;;
42701;Laerm;28316;49.504;8.526;2023-06-22T08:06:05;41.95;40.23;43.19;;
42701;Laerm;28316;49.504;8.526;2023-06-22T08:08:31;41.90;40.43;43.29;;
42701;Laerm;28316;49.504;8.526;2023-06-22T08:10:57;41.89;40.33;43.09;;
42701;Laerm;28316;49.504;8.526;2023-06-22T08:13:23;41.87;40.33;43.34;;
42701;Laerm;28316;49.504;8.526;2023-06-22T08:15:49;41.81;40.23;43.34;;
42701;Laerm;28316;49.504;8.526;2023-06-22T08:18:15;41.75;40.03;42.93;;
42701;Laerm;28316;49.504;8.526;2023-06-22T08:20:42;41.70;39.81;43.09;;
42701;Laerm;28316;49.504;8.526;2023-06-22T08:23:08;41.70;39.92;43.09;;
42701;Laerm;28316;49.504;8.526;2023-06-22T08:25:34;41.68;40.03;42.98;;
42701;Laerm;28316;49.504;8.526;2023-06-22T08:28:04;41.61;39.70;42.93;;
42701;Laerm;28316;49.504;8.526;2023-06-22T08:30:30;41.59;39.92;42.93;;
42701;Laerm;28316;49.504;8.526;2023-06-22T08:32:56;41.60;39.92;43.04;;
42701;Laerm;28316;49.504;8.526;2023-06-22T08:35:25;41.59;39.70;42.98;;
42701;Laerm;28316;49.504;8.526;2023-06-22T08:37:51;41.59;39.46;42.93;;
42701;Laerm;28316;49.504;8.526;2023-06-22T08:40:22;41.58;39.08;43.14;;
42701;Laerm;28316;49.504;8.526;2023-06-22T08:42:49;41.56;39.92;42.93;;
42701;Laerm;28316;49.504;8.526;2023-06-22T08:45:15;41.53;39.81;42.98;;
42701;Laerm;28316;49.504;8.526;2023-06-22T08:47:41;41.46;39.21;42.88;;
42701;Laerm;28316;49.504;8.526;2023-06-22T08:50:09;41.43;39.70;42.82;;
42701;Laerm;28316;49.504;8.526;2023-06-22T08:52:36;41.41;39.92;42.88;;
42701;Laerm;28316;49.504;8.526;2023-06-22T08:55:01;41.38;39.21;42.76;;
42701;Laerm;28316;49.504;8.526;2023-06-22T08:57:28;41.33;39.34;43.14;;
42701;Laerm;28316;49.504;8.526;2023-06-22T08:59:54;41.32;39.34;42.71;;
42701;Laerm;28316;49.504;8.526;2023-06-22T09:02:27;41.32;39.46;42.76;;
42701;Laerm;28316;49.504;8.526;2023-06-22T09:04:59;41.28;39.46;42.65;;
42701;Laerm;28316;49.504;8.526;2023-06-22T09:07:24;41.26;39.34;42.76;;
42701;Laerm;28316;49.504;8.526;2023-06-22T09:09:51;41.22;39.08;42.71;;
42701;Laerm;28316;49.504;8.526;2023-06-22T09:12:21;41.19;39.08;42.82;;
42701;Laerm;28316;49.504;8.526;2023-06-22T09:14:51;41.13;39.21;42.71;;
42701;Laerm;28316;49.504;8.526;2023-06-22T09:17:17;41.10;39.08;42.53;;
42701;Laerm;28316;49.504;8.526;2023-06-22T09:19:43;41.15;38.81;42.76;;
42701;Laerm;28316;49.504;8.526;2023-06-22T09:22:08;41.13;38.67;42.65;;
42701;Laerm;28316;49.504;8.526;2023-06-22T09:24:34;41.07;38.37;42.71;;
42701;Laerm;28316;49.504;8.526;2023-06-22T09:27:00;41.02;38.67;42.71;;
42701;Laerm;28316;49.504;8.526;2023-06-22T09:29:26;41.00;39.08;42.47;;
42701;Laerm;28316;49.504;8.526;2023-06-22T09:31:51;40.98;38.67;42.59;;
42701;Laerm;28316;49.504;8.526;2023-06-22T09:34:19;40.91;38.81;42.47;;
42701;Laerm;28316;49.504;8.526;2023-06-22T09:36:48;40.92;38.52;42.41;;
42701;Laerm;28316;49.504;8.526;2023-06-22T09:39:14;40.89;38.52;42.47;;
42701;Laerm;28316;49.504;8.526;2023-06-22T09:41:40;40.87;38.81;42.41;;
42701;Laerm;28316;49.504;8.526;2023-06-22T09:44:06;40.89;38.95;42.47;;
42701;Laerm;28316;49.504;8.526;2023-06-22T09:46:32;40.85;38.95;42.41;;
42701;Laerm;28316;49.504;8.526;2023-06-22T09:48:57;40.82;38.81;43.29;;
42701;Laerm;28316;49.504;8.526;2023-06-22T09:51:23;40.75;37.88;45.88;;
42701;Laerm;28316;49.504;8.526;2023-06-22T09:53:50;40.73;38.52;42.76;;
42701;Laerm;28316;49.504;8.526;2023-06-22T09:56:16;40.70;38.52;42.41;;
42701;Laerm;28316;49.504;8.526;2023-06-22T09:58:43;40.70;38.21;42.22;;
42701;Laerm;28316;49.504;8.526;2023-06-22T10:01:10;40.69;38.21;45.07;;
42701;Laerm;28316;49.504;8.526;2023-06-22T10:03:36;40.66;38.67;42.29;;
42701;Laerm;28316;49.504;8.526;2023-06-22T10:06:03;40.66;38.37;42.35;;
42701;Laerm;28316;49.504;8.526;2023-06-22T10:08:29;40.60;38.37;42.29;;
42701;Laerm;28316;49.504;8.526;2023-06-22T10:10:54;40.60;38.32;42.29;;
42701;Laerm;28316;49.504;8.526;2023-06-22T10:13:20;40.62;38.21;42.22;;
42701;Laerm;28316;49.504;8.526;2023-06-22T10:15:46;40.63;38.52;42.47;;
42701;Laerm;28316;49.504;8.526;2023-06-22T10:18:17;40.60;38.37;42.53;;
42701;Laerm;28316;49.504;8.526;2023-06-22T10:20:43;40.59;38.05;42.29;;
42701;Laerm;28316;49.504;8.526;2023-06-22T10:23:09;40.59;38.21;44.23;;
42701;Laerm;28316;49.504;8.526;2023-06-22T10:25:35;40.55;38.21;42.41;;
42701;Laerm;28316;49.504;8.526;2023-06-22T10:28:00;40.60;37.88;42.22;;
42701;Laerm;28316;49.504;8.526;2023-06-22T10:30:26;40.56;38.52;42.41;;
42701;Laerm;28316;49.504;8.526;2023-06-22T10:32:52;40.59;38.21;42.47;;
42701;Laerm;28316;49.504;8.526;2023-06-22T10:35:18;40.54;38.37;42.22;;
42701;Laerm;28316;49.504;8.526;2023-06-22T10:37:45;40.51;36.45;42.47;;
42701;Laerm;28316;49.504;8.526;2023-06-22T10:40:13;40.53;38.05;42.22;;
42701;Laerm;28316;49.504;8.526;2023-06-22T10:42:39;40.50;37.17;42.36;;
42701;Laerm;28316;49.504;8.526;2023-06-22T10:45:05;40.44;34.69;42.22;;
42701;Laerm;28316;49.504;8.526;2023-06-22T10:47:31;40.47;34.31;42.29;;
42701;Laerm;28316;49.504;8.526;2023-06-22T10:49:57;40.48;37.70;42.16;;
42701;Laerm;28316;49.504;8.526;2023-06-22T10:52:23;40.45;37.52;42.03;;
42701;Laerm;28316;49.504;8.526;2023-06-22T10:54:48;40.43;38.05;42.35;;
42701;Laerm;28316;49.504;8.526;2023-06-22T10:57:14;40.39;37.52;42.09;;
42701;Laerm;28316;49.504;8.526;2023-06-22T10:59:40;40.39;37.53;44.31;;
42701;Laerm;28316;49.504;8.526;2023-06-22T11:02:06;40.37;37.70;43.34;;
42701;Laerm;28316;49.504;8.526;2023-06-22T11:04:31;40.34;38.21;43.09;;
42701;Laerm;28316;49.504;8.526;2023-06-22T11:06:57;40.27;37.70;42.09;;
42701;Laerm;28316;49.504;8.526;2023-06-22T11:09:23;40.32;37.12;44.51;;
42701;Laerm;28316;49.504;8.526;2023-06-22T11:11:51;40.23;37.88;42.76;;
42701;Laerm;28316;49.504;8.526;2023-06-22T11:14:20;40.22;37.88;42.22;;
42701;Laerm;28316;49.504;8.526;2023-06-22T11:16:47;40.21;37.52;42.09;;
42701;Laerm;28316;49.504;8.526;2023-06-22T11:19:13;40.24;37.87;42.03;;
42701;Laerm;28316;49.504;8.526;2023-06-22T11:21:38;40.26;37.70;42.09;;
42701;Laerm;28316;49.504;8.526;2023-06-22T11:24:05;40.25;37.32;42.47;;
42701;Laerm;28316;49.504;8.526;2023-06-22T11:26:31;40.17;37.70;42.22;;
42701;Laerm;28316;49.504;8.526;2023-06-22T11:28:58;40.15;37.12;41.89;;
42701;Laerm;28316;49.504;8.526;2023-06-22T11:31:23;40.19;37.52;42.03;;
42701;Laerm;28316;49.504;8.526;2023-06-22T11:33:50;40.21;37.70;42.16;;
42701;Laerm;28316;49.504;8.526;2023-06-22T11:36:16;40.22;37.32;42.19;;
42701;Laerm;28316;49.504;8.526;2023-06-22T11:38:42;40.20;37.70;41.82;;
42701;Laerm;28316;49.504;8.526;2023-06-22T11:41:10;40.09;37.52;42.16;;
42701;Laerm;28316;49.504;8.526;2023-06-22T11:43:36;40.06;37.12;41.89;;
42701;Laerm;28316;49.504;8.526;2023-06-22T11:46:03;40.08;37.32;41.96;;
42701;Laerm;28316;49.504;8.526;2023-06-22T11:48:30;40.08;37.52;41.96;;
42701;Laerm;28316;49.504;8.526;2023-06-22T11:50:56;40.06;36.69;42.09;;
42701;Laerm;28316;49.504;8.526;2023-06-22T11:53:24;40.10;37.52;42.03;;
42701;Laerm;28316;49.504;8.526;2023-06-22T11:55:50;40.09;37.32;41.96;;
42701;Laerm;28316;49.504;8.526;2023-06-22T11:58:16;40.12;37.32;42.09;;
42701;Laerm;28316;49.504;8.526;2023-06-22T12:00:42;40.12;37.32;42.03;;
42701;Laerm;28316;49.504;8.526;2023-06-22T12:03:08;40.12;37.32;41.96;;
42701;Laerm;28316;49.504;8.526;2023-06-22T12:05:34;40.15;37.70;42.16;;
42701;Laerm;28316;49.504;8.526;2023-06-22T12:08:00;40.12;36.91;42.16;;
42701;Laerm;28316;49.504;8.526;2023-06-22T12:10:27;40.10;37.32;43.19;;
42701;Laerm;28316;49.504;8.526;2023-06-22T12:12:54;40.06;37.32;42.03;;
42701;Laerm;28316;49.504;8.526;2023-06-22T12:15:20;40.06;37.32;42.16;;
42701;Laerm;28316;49.504;8.526;2023-06-22T12:17:46;40.08;37.32;42.16;;
42701;Laerm;28316;49.504;8.526;2023-06-22T12:20:13;40.04;37.52;42.03;;
42701;Laerm;28316;49.504;8.526;2023-06-22T12:22:40;40.01;36.91;41.75;;
42701;Laerm;28316;49.504;8.526;2023-06-22T12:25:07;40.05;36.69;42.35;;
42701;Laerm;28316;49.504;8.526;2023-06-22T12:27:37;40.06;37.12;42.03;;
42701;Laerm;28316;49.504;8.526;2023-06-22T12:30:04;40.04;37.52;42.16;;
42701;Laerm;28316;49.504;8.526;2023-06-22T12:32:30;40.15;37.52;43.94;;
42701;Laerm;28316;49.504;8.526;2023-06-22T12:34:56;40.15;37.52;43.72;;
42701;Laerm;28316;49.504;8.526;2023-06-22T12:37:23;40.10;37.52;44.23;;
42701;Laerm;28316;49.504;8.526;2023-06-22T12:39:49;40.06;37.32;42.16;;
42701;Laerm;28316;49.504;8.526;2023-06-22T12:42:16;39.99;37.12;41.89;;
42701;Laerm;28316;49.504;8.526;2023-06-22T12:44:42;40.11;37.70;48.70;;
42701;Laerm;28316;49.504;8.526;2023-06-22T12:47:08;40.07;37.32;43.72;;
42701;Laerm;28316;49.504;8.526;2023-06-22T12:49:35;40.03;37.32;43.51;;
42701;Laerm;28316;49.504;8.526;2023-06-22T12:52:02;40.11;37.17;49.69;;
42701;Laerm;28316;49.504;8.526;2023-06-22T12:54:28;40.05;37.12;44.62;;
42701;Laerm;28316;49.504;8.526;2023-06-22T12:56:55;39.93;36.69;41.94;;
42701;Laerm;28316;49.504;8.526;2023-06-22T12:59:21;39.92;37.12;43.94;;
42701;Laerm;28316;49.504;8.526;2023-06-22T13:01:47;40.09;37.32;54.14;;
42701;Laerm;28316;49.504;8.526;2023-06-22T13:04:13;39.93;37.12;43.39;;
42701;Laerm;28316;49.504;8.526;2023-06-22T13:06:43;39.93;35.94;42.03;;
42701;Laerm;28316;49.504;8.526;2023-06-22T13:09:10;39.95;37.12;43.39;;
42701;Laerm;28316;49.504;8.526;2023-06-22T13:11:36;39.98;37.32;43.68;;
42701;Laerm;28316;49.504;8.526;2023-06-22T13:14:02;40.04;37.32;44.51;;
42701;Laerm;28316;49.504;8.526;2023-06-22T13:16:27;40.02;36.91;45.91;;
42701;Laerm;28316;49.504;8.526;2023-06-22T13:18:53;40.17;36.91;47.26;;
42701;Laerm;28316;49.504;8.526;2023-06-22T13:21:19;40.14;36.69;49.62;;
42701;Laerm;28316;49.504;8.526;2023-06-22T13:23:45;40.05;37.32;43.99;;
42701;Laerm;28316;49.504;8.526;2023-06-22T13:26:11;40.14;37.70;43.81;;
42701;Laerm;28316;49.504;8.526;2023-06-22T13:28:36;40.22;37.12;46.62;;
42701;Laerm;28316;49.504;8.526;2023-06-22T13:31:02;40.35;37.32;52.37;;
42701;Laerm;28316;49.504;8.526;2023-06-22T13:33:28;39.95;37.12;42.47;;
42701;Laerm;28316;49.504;8.526;2023-06-22T13:35:54;40.09;36.69;47.08;;
42701;Laerm;28316;49.504;8.526;2023-06-22T13:38:19;39.94;37.52;42.53;;
42701;Laerm;28316;49.504;8.526;2023-06-22T13:40:45;40.35;37.32;54.25;;
42701;Laerm;28316;49.504;8.526;2023-06-22T13:43:13;40.06;37.32;50.43;;
42701;Laerm;28316;49.504;8.526;2023-06-22T13:45:39;40.00;36.45;44.94;;
42701;Laerm;28316;49.504;8.526;2023-06-22T13:48:05;39.90;37.12;44.94;;